sensor_id;sensor_type;location;lat;lon;timestamp;temperature;humidity
73277;DHT22;61501;43.316;5.372;2023-05-24T00:00:30;19.80;99.90
73277;DHT22;61501;43.316;5.372;2023-05-24T00:02:57;19.70;99.90
73277;DHT22;61501;43.316;5.372;2023-05-24T00:05:23;19.70;99.90
73277;DHT22;61501;43.316;5.372;2023-05-24T00:07:49;19.70;99.90
73277;DHT22;61501;43.316;5.372;2023-05-24T00:10:15;19.70;99.90
73277;DHT22;61501;43.316;5.372;2023-05-24T00:12:40;19.70;99.90
73277;DHT22;61501;43.316;5.372;2023-05-24T00:15:06;19.80;99.90
73277;DHT22;61501;43.316;5.372;2023-05-24T00:17:32;19.70;99.90
73277;DHT22;61501;43.316;5.372;2023-05-24T00:20:07;19.70;99.90
73277;DHT22;61501;43.316;5.372;2023-05-24T00:22:34;19.70;99.90
73277;DHT22;61501;43.316;5.372;2023-05-24T00:25:01;19.70;99.90
73277;DHT22;61501;43.316;5.372;2023-05-24T00:27:26;19.70;99.90
73277;DHT22;61501;43.316;5.372;2023-05-24T00:29:52;19.70;99.90
73277;DHT22;61501;43.316;5.372;2023-05-24T00:32:18;19.70;99.90
73277;DHT22;61501;43.316;5.372;2023-05-24T00:34:43;19.70;99.90
73277;DHT22;61501;43.316;5.372;2023-05-24T00:37:09;19.70;99.90
73277;DHT22;61501;43.316;5.372;2023-05-24T00:39:34;19.70;99.90
73277;DHT22;61501;43.316;5.372;2023-05-24T00:42:01;19.70;99.90
73277;DHT22;61501;43.316;5.372;2023-05-24T00:44:26;19.70;99.90
73277;DHT22;61501;43.316;5.372;2023-05-24T00:46:52;19.70;99.90
73277;DHT22;61501;43.316;5.372;2023-05-24T00:49:18;19.60;99.90
73277;DHT22;61501;43.316;5.372;2023-05-24T00:51:45;19.60;99.90
73277;DHT22;61501;43.316;5.372;2023-05-24T00:54:11;19.60;99.90
73277;DHT22;61501;43.316;5.372;2023-05-24T00:56:38;19.60;99.90
73277;DHT22;61501;43.316;5.372;2023-05-24T00:59:03;19.60;99.90
73277;DHT22;61501;43.316;5.372;2023-05-24T01:01:30;19.60;99.90
73277;DHT22;61501;43.316;5.372;2023-05-24T01:03:59;19.50;99.90
73277;DHT22;61501;43.316;5.372;2023-05-24T01:06:24;19.50;99.90
73277;DHT22;61501;43.316;5.372;2023-05-24T01:14:52;19.50;99.90
73277;DHT22;61501;43.316;5.372;2023-05-24T01:17:32;19.50;99.90
73277;DHT22;61501;43.316;5.372;2023-05-24T01:20:06;19.60;99.90
73277;DHT22;61501;43.316;5.372;2023-05-24T01:22:57;19.60;99.90
73277;DHT22;61501;43.316;5.372;2023-05-24T01:28:13;19.60;99.90
73277;DHT22;61501;43.316;5.372;2023-05-24T01:30:40;19.50;99.90
73277;DHT22;61501;43.316;5.372;2023-05-24T01:33:07;19.50;99.90
73277;DHT22;61501;43.316;5.372;2023-05-24T01:35:32;19.40;99.90
73277;DHT22;61501;43.316;5.372;2023-05-24T01:38:05;19.40;99.90
73277;DHT22;61501;43.316;5.372;2023-05-24T01:40:31;19.40;99.90
73277;DHT22;61501;43.316;5.372;2023-05-24T01:43:10;19.40;99.90
73277;DHT22;61501;43.316;5.372;2023-05-24T01:45:51;19.30;99.90
73277;DHT22;61501;43.316;5.372;2023-05-24T01:50:56;19.30;99.90
73277;DHT22;61501;43.316;5.372;2023-05-24T01:53:24;19.30;99.90
73277;DHT22;61501;43.316;5.372;2023-05-24T01:55:52;19.30;99.90
73277;DHT22;61501;43.316;5.372;2023-05-24T01:58:20;19.30;99.90
73277;DHT22;61501;43.316;5.372;2023-05-24T02:00:48;19.30;99.90
73277;DHT22;61501;43.316;5.372;2023-05-24T02:03:14;19.30;99.90
73277;DHT22;61501;43.316;5.372;2023-05-24T02:05:41;19.30;99.90
73277;DHT22;61501;43.316;5.372;2023-05-24T02:08:08;19.30;99.90
73277;DHT22;61501;43.316;5.372;2023-05-24T02:10:34;19.30;99.90
73277;DHT22;61501;43.316;5.372;2023-05-24T02:13:02;19.20;99.90
73277;DHT22;61501;43.316;5.372;2023-05-24T02:15:28;19.20;99.90
73277;DHT22;61501;43.316;5.372;2023-05-24T02:17:55;19.20;99.90
73277;DHT22;61501;43.316;5.372;2023-05-24T02:20:20;19.20;99.90
73277;DHT22;61501;43.316;5.372;2023-05-24T02:22:47;19.20;99.90
73277;DHT22;61501;43.316;5.372;2023-05-24T02:25:13;19.10;99.90
73277;DHT22;61501;43.316;5.372;2023-05-24T02:27:39;19.10;99.90
73277;DHT22;61501;43.316;5.372;2023-05-24T02:30:06;19.10;99.90
73277;DHT22;61501;43.316;5.372;2023-05-24T02:32:32;19.10;99.90
73277;DHT22;61501;43.316;5.372;2023-05-24T02:34:59;19.10;99.90
73277;DHT22;61501;43.316;5.372;2023-05-24T02:37:26;19.00;99.90
73277;DHT22;61501;43.316;5.372;2023-05-24T02:39:52;19.00;99.90
73277;DHT22;61501;43.316;5.372;2023-05-24T02:42:18;19.00;99.90
73277;DHT22;61501;43.316;5.372;2023-05-24T02:44:43;19.00;99.90
73277;DHT22;61501;43.316;5.372;2023-05-24T02:47:13;19.00;99.90
73277;DHT22;61501;43.316;5.372;2023-05-24T02:49:39;19.00;99.90
73277;DHT22;61501;43.316;5.372;2023-05-24T02:52:04;18.90;99.90
73277;DHT22;61501;43.316;5.372;2023-05-24T02:54:30;19.00;99.90
73277;DHT22;61501;43.316;5.372;2023-05-24T02:56:56;19.00;99.90
73277;DHT22;61501;43.316;5.372;2023-05-24T02:59:22;19.00;99.90
73277;DHT22;61501;43.316;5.372;2023-05-24T03:01:48;19.00;99.90
73277;DHT22;61501;43.316;5.372;2023-05-24T03:04:14;19.00;99.90
73277;DHT22;61501;43.316;5.372;2023-05-24T03:06:39;19.00;99.90
73277;DHT22;61501;43.316;5.372;2023-05-24T03:09:05;19.00;99.90
73277;DHT22;61501;43.316;5.372;2023-05-24T03:11:31;19.00;99.90
73277;DHT22;61501;43.316;5.372;2023-05-24T03:13:57;19.00;99.90
73277;DHT22;61501;43.316;5.372;2023-05-24T03:16:22;19.00;99.90
73277;DHT22;61501;43.316;5.372;2023-05-24T03:18:49;19.00;99.90
73277;DHT22;61501;43.316;5.372;2023-05-24T03:21:16;19.00;99.90
73277;DHT22;61501;43.316;5.372;2023-05-24T03:23:42;18.90;99.90
73277;DHT22;61501;43.316;5.372;2023-05-24T03:26:07;19.00;99.90
73277;DHT22;61501;43.316;5.372;2023-05-24T03:28:33;18.90;99.90
73277;DHT22;61501;43.316;5.372;2023-05-24T03:30:59;18.90;99.90
73277;DHT22;61501;43.316;5.372;2023-05-24T03:33:24;18.90;99.90
73277;DHT22;61501;43.316;5.372;2023-05-24T03:35:50;18.90;99.90
73277;DHT22;61501;43.316;5.372;2023-05-24T03:38:16;18.90;99.90
73277;DHT22;61501;43.316;5.372;2023-05-24T03:40:41;18.90;99.90
73277;DHT22;61501;43.316;5.372;2023-05-24T03:43:07;18.90;99.90
73277;DHT22;61501;43.316;5.372;2023-05-24T03:45:32;18.90;99.90
73277;DHT22;61501;43.316;5.372;2023-05-24T03:47:58;18.90;99.90
73277;DHT22;61501;43.316;5.372;2023-05-24T03:50:24;19.00;99.90
73277;DHT22;61501;43.316;5.372;2023-05-24T03:52:49;19.00;99.90
73277;DHT22;61501;43.316;5.372;2023-05-24T03:55:15;19.00;99.90
73277;DHT22;61501;43.316;5.372;2023-05-24T03:57:41;19.00;99.90
73277;DHT22;61501;43.316;5.372;2023-05-24T04:00:09;19.00;99.90
73277;DHT22;61501;43.316;5.372;2023-05-24T04:02:36;19.00;99.90
73277;DHT22;61501;43.316;5.372;2023-05-24T04:05:03;18.90;99.90
73277;DHT22;61501;43.316;5.372;2023-05-24T04:07:29;19.00;99.90
73277;DHT22;61501;43.316;5.372;2023-05-24T04:09:58;19.00;99.90
73277;DHT22;61501;43.316;5.372;2023-05-24T04:12:24;19.00;99.90
73277;DHT22;61501;43.316;5.372;2023-05-24T04:14:49;19.00;99.90
73277;DHT22;61501;43.316;5.372;2023-05-24T04:17:16;19.00;99.90
73277;DHT22;61501;43.316;5.372;2023-05-24T04:19:42;19.00;99.90
73277;DHT22;61501;43.316;5.372;2023-05-24T04:22:08;19.00;99.90
73277;DHT22;61501;43.316;5.372;2023-05-24T04:24:34;19.00;99.90
73277;DHT22;61501;43.316;5.372;2023-05-24T04:27:00;19.10;99.90
73277;DHT22;61501;43.316;5.372;2023-05-24T04:29:26;19.10;99.90
73277;DHT22;61501;43.316;5.372;2023-05-24T04:31:52;19.10;99.90
73277;DHT22;61501;43.316;5.372;2023-05-24T04:34:17;19.10;99.90
73277;DHT22;61501;43.316;5.372;2023-05-24T04:36:46;19.10;99.90
73277;DHT22;61501;43.316;5.372;2023-05-24T04:39:13;19.10;99.90
73277;DHT22;61501;43.316;5.372;2023-05-24T04:41:40;19.10;99.90
73277;DHT22;61501;43.316;5.372;2023-05-24T04:44:05;19.10;99.90
73277;DHT22;61501;43.316;5.372;2023-05-24T04:46:32;19.10;99.90
73277;DHT22;61501;43.316;5.372;2023-05-24T04:49:00;19.20;99.90
73277;DHT22;61501;43.316;5.372;2023-05-24T04:51:26;19.30;99.90
73277;DHT22;61501;43.316;5.372;2023-05-24T04:53:52;19.30;99.90
73277;DHT22;61501;43.316;5.372;2023-05-24T04:56:18;19.30;99.90
73277;DHT22;61501;43.316;5.372;2023-05-24T04:58:44;19.30;99.90
73277;DHT22;61501;43.316;5.372;2023-05-24T05:01:09;19.30;99.90
73277;DHT22;61501;43.316;5.372;2023-05-24T05:03:35;19.20;99.90
73277;DHT22;61501;43.316;5.372;2023-05-24T05:06:01;19.30;99.90
73277;DHT22;61501;43.316;5.372;2023-05-24T05:08:26;19.30;99.90
73277;DHT22;61501;43.316;5.372;2023-05-24T05:10:52;19.30;99.90
73277;DHT22;61501;43.316;5.372;2023-05-24T05:13:18;19.30;99.90
73277;DHT22;61501;43.316;5.372;2023-05-24T05:15:43;19.40;99.90
73277;DHT22;61501;43.316;5.372;2023-05-24T05:18:09;19.50;99.90
73277;DHT22;61501;43.316;5.372;2023-05-24T05:20:35;19.50;99.90
73277;DHT22;61501;43.316;5.372;2023-05-24T05:23:00;19.50;99.90
73277;DHT22;61501;43.316;5.372;2023-05-24T05:25:26;19.60;99.90
73277;DHT22;61501;43.316;5.372;2023-05-24T05:27:52;19.60;99.90
73277;DHT22;61501;43.316;5.372;2023-05-24T05:30:18;19.70;99.90
73277;DHT22;61501;43.316;5.372;2023-05-24T05:32:44;19.80;99.90
73277;DHT22;61501;43.316;5.372;2023-05-24T05:35:09;19.80;99.90
73277;DHT22;61501;43.316;5.372;2023-05-24T05:37:35;19.80;99.90
73277;DHT22;61501;43.316;5.372;2023-05-24T05:40:01;19.80;99.90
73277;DHT22;61501;43.316;5.372;2023-05-24T05:42:26;19.70;99.90
73277;DHT22;61501;43.316;5.372;2023-05-24T05:44:52;19.60;99.90
73277;DHT22;61501;43.316;5.372;2023-05-24T05:47:17;19.60;99.90
73277;DHT22;61501;43.316;5.372;2023-05-24T05:49:43;19.70;99.90
73277;DHT22;61501;43.316;5.372;2023-05-24T05:52:09;19.80;99.90
73277;DHT22;61501;43.316;5.372;2023-05-24T05:54:34;19.90;99.90
73277;DHT22;61501;43.316;5.372;2023-05-24T05:57:00;20.00;99.90
73277;DHT22;61501;43.316;5.372;2023-05-24T05:59:26;20.10;99.90
73277;DHT22;61501;43.316;5.372;2023-05-24T06:01:51;20.10;99.90
73277;DHT22;61501;43.316;5.372;2023-05-24T06:04:17;20.00;99.90
73277;DHT22;61501;43.316;5.372;2023-05-24T06:06:43;19.80;99.90
73277;DHT22;61501;43.316;5.372;2023-05-24T06:09:12;19.80;99.90
73277;DHT22;61501;43.316;5.372;2023-05-24T06:11:38;19.80;99.90
73277;DHT22;61501;43.316;5.372;2023-05-24T06:14:07;19.70;99.90
73277;DHT22;61501;43.316;5.372;2023-05-24T06:16:32;19.70;99.90
73277;DHT22;61501;43.316;5.372;2023-05-24T06:18:58;19.70;99.90
73277;DHT22;61501;43.316;5.372;2023-05-24T06:21:24;19.80;99.90
73277;DHT22;61501;43.316;5.372;2023-05-24T06:23:51;19.70;99.90
73277;DHT22;61501;43.316;5.372;2023-05-24T06:26:16;19.70;99.90
73277;DHT22;61501;43.316;5.372;2023-05-24T06:28:42;19.80;99.90
73277;DHT22;61501;43.316;5.372;2023-05-24T06:31:08;20.00;99.90
73277;DHT22;61501;43.316;5.372;2023-05-24T06:33:33;20.00;99.90
73277;DHT22;61501;43.316;5.372;2023-05-24T06:35:59;20.10;99.90
73277;DHT22;61501;43.316;5.372;2023-05-24T06:38:25;20.10;99.90
73277;DHT22;61501;43.316;5.372;2023-05-24T06:40:52;20.10;99.90
73277;DHT22;61501;43.316;5.372;2023-05-24T06:43:17;20.10;99.90
73277;DHT22;61501;43.316;5.372;2023-05-24T06:45:45;20.20;99.90
73277;DHT22;61501;43.316;5.372;2023-05-24T06:48:10;20.30;99.90
73277;DHT22;61501;43.316;5.372;2023-05-24T06:50:36;20.50;99.90
73277;DHT22;61501;43.316;5.372;2023-05-24T06:53:02;20.60;99.90
73277;DHT22;61501;43.316;5.372;2023-05-24T06:55:28;20.70;99.90
73277;DHT22;61501;43.316;5.372;2023-05-24T06:57:54;20.80;99.90
73277;DHT22;61501;43.316;5.372;2023-05-24T07:00:20;20.70;99.90
73277;DHT22;61501;43.316;5.372;2023-05-24T07:02:46;20.80;99.90
73277;DHT22;61501;43.316;5.372;2023-05-24T07:05:12;20.60;99.90
73277;DHT22;61501;43.316;5.372;2023-05-24T07:07:38;20.70;99.90
73277;DHT22;61501;43.316;5.372;2023-05-24T07:10:06;20.90;99.90
73277;DHT22;61501;43.316;5.372;2023-05-24T07:12:33;20.80;99.90
73277;DHT22;61501;43.316;5.372;2023-05-24T07:14:58;20.90;99.90
73277;DHT22;61501;43.316;5.372;2023-05-24T07:17:24;20.70;99.90
73277;DHT22;61501;43.316;5.372;2023-05-24T07:19:49;20.60;99.90
73277;DHT22;61501;43.316;5.372;2023-05-24T07:22:15;20.50;99.90
73277;DHT22;61501;43.316;5.372;2023-05-24T07:24:41;20.40;99.90
73277;DHT22;61501;43.316;5.372;2023-05-24T07:27:07;20.50;99.90
73277;DHT22;61501;43.316;5.372;2023-05-24T07:29:32;20.50;99.90
73277;DHT22;61501;43.316;5.372;2023-05-24T07:31:58;20.70;99.90
73277;DHT22;61501;43.316;5.372;2023-05-24T07:34:25;20.70;99.90
73277;DHT22;61501;43.316;5.372;2023-05-24T07:36:52;20.70;99.90
73277;DHT22;61501;43.316;5.372;2023-05-24T07:39:18;20.60;99.90
73277;DHT22;61501;43.316;5.372;2023-05-24T07:41:43;20.70;99.90
73277;DHT22;61501;43.316;5.372;2023-05-24T07:44:09;20.70;99.90
73277;DHT22;61501;43.316;5.372;2023-05-24T07:46:37;20.70;99.90
73277;DHT22;61501;43.316;5.372;2023-05-24T07:49:03;20.70;99.90
73277;DHT22;61501;43.316;5.372;2023-05-24T07:51:29;20.80;99.90
73277;DHT22;61501;43.316;5.372;2023-05-24T07:53:54;20.90;99.90
73277;DHT22;61501;43.316;5.372;2023-05-24T07:56:20;20.80;99.90
73277;DHT22;61501;43.316;5.372;2023-05-24T07:58:46;21.00;99.90
73277;DHT22;61501;43.316;5.372;2023-05-24T08:01:13;21.00;99.90
73277;DHT22;61501;43.316;5.372;2023-05-24T08:03:39;21.00;99.90
73277;DHT22;61501;43.316;5.372;2023-05-24T08:06:04;21.00;99.90
73277;DHT22;61501;43.316;5.372;2023-05-24T08:08:30;21.00;99.90
73277;DHT22;61501;43.316;5.372;2023-05-24T08:10:56;21.00;99.90
73277;DHT22;61501;43.316;5.372;2023-05-24T08:13:21;21.00;99.90
73277;DHT22;61501;43.316;5.372;2023-05-24T08:15:47;21.00;99.90
73277;DHT22;61501;43.316;5.372;2023-05-24T08:18:13;21.10;99.90
73277;DHT22;61501;43.316;5.372;2023-05-24T08:20:38;21.20;99.90
73277;DHT22;61501;43.316;5.372;2023-05-24T08:23:05;21.20;99.90
73277;DHT22;61501;43.316;5.372;2023-05-24T08:25:31;21.20;99.90
73277;DHT22;61501;43.316;5.372;2023-05-24T08:27:57;21.10;99.90
73277;DHT22;61501;43.316;5.372;2023-05-24T08:30:23;21.10;99.90
73277;DHT22;61501;43.316;5.372;2023-05-24T08:32:49;21.10;99.90
73277;DHT22;61501;43.316;5.372;2023-05-24T08:35:15;21.20;99.90
73277;DHT22;61501;43.316;5.372;2023-05-24T08:37:41;21.10;99.90
73277;DHT22;61501;43.316;5.372;2023-05-24T08:40:07;21.20;99.90
73277;DHT22;61501;43.316;5.372;2023-05-24T08:42:37;21.30;99.90
73277;DHT22;61501;43.316;5.372;2023-05-24T08:45:07;21.20;99.90
73277;DHT22;61501;43.316;5.372;2023-05-24T08:47:35;21.10;99.90
73277;DHT22;61501;43.316;5.372;2023-05-24T08:50:02;21.20;99.90
73277;DHT22;61501;43.316;5.372;2023-05-24T08:52:30;21.10;99.90
73277;DHT22;61501;43.316;5.372;2023-05-24T08:54:58;21.10;99.90
73277;DHT22;61501;43.316;5.372;2023-05-24T08:57:26;21.20;99.90
73277;DHT22;61501;43.316;5.372;2023-05-24T08:59:52;21.10;99.90
73277;DHT22;61501;43.316;5.372;2023-05-24T09:02:20;21.10;99.90
73277;DHT22;61501;43.316;5.372;2023-05-24T09:04:48;21.20;99.90
73277;DHT22;61501;43.316;5.372;2023-05-24T09:07:16;21.20;99.90
73277;DHT22;61501;43.316;5.372;2023-05-24T09:09:56;21.20;99.90
73277;DHT22;61501;43.316;5.372;2023-05-24T09:12:23;21.10;99.90
73277;DHT22;61501;43.316;5.372;2023-05-24T09:14:49;21.30;99.90
73277;DHT22;61501;43.316;5.372;2023-05-24T09:17:15;21.30;99.90
73277;DHT22;61501;43.316;5.372;2023-05-24T09:19:50;21.30;99.90
73277;DHT22;61501;43.316;5.372;2023-05-24T09:22:17;21.30;99.90
73277;DHT22;61501;43.316;5.372;2023-05-24T09:24:48;21.30;99.90
73277;DHT22;61501;43.316;5.372;2023-05-24T09:27:17;21.30;99.90
73277;DHT22;61501;43.316;5.372;2023-05-24T09:29:45;21.30;99.90
73277;DHT22;61501;43.316;5.372;2023-05-24T09:32:13;21.30;99.90
73277;DHT22;61501;43.316;5.372;2023-05-24T09:34:40;21.20;99.90
73277;DHT22;61501;43.316;5.372;2023-05-24T09:37:17;21.30;99.90
73277;DHT22;61501;43.316;5.372;2023-05-24T09:39:43;21.30;99.90
73277;DHT22;61501;43.316;5.372;2023-05-24T09:42:19;21.40;99.90
73277;DHT22;61501;43.316;5.372;2023-05-24T09:45:06;21.40;99.90
73277;DHT22;61501;43.316;5.372;2023-05-24T09:47:39;21.40;99.90
73277;DHT22;61501;43.316;5.372;2023-05-24T09:50:14;21.40;99.90
73277;DHT22;61501;43.316;5.372;2023-05-24T09:52:41;21.60;99.90
73277;DHT22;61501;43.316;5.372;2023-05-24T09:55:17;21.60;99.90
73277;DHT22;61501;43.316;5.372;2023-05-24T09:57:52;21.40;99.90
73277;DHT22;61501;43.316;5.372;2023-05-24T10:00:26;21.50;99.90
73277;DHT22;61501;43.316;5.372;2023-05-24T10:03:06;21.70;99.90
73277;DHT22;61501;43.316;5.372;2023-05-24T10:05:33;21.50;99.90
73277;DHT22;61501;43.316;5.372;2023-05-24T10:08:00;21.30;99.90
73277;DHT22;61501;43.316;5.372;2023-05-24T10:10:31;21.30;99.90
73277;DHT22;61501;43.316;5.372;2023-05-24T10:12:57;21.10;99.90
73277;DHT22;61501;43.316;5.372;2023-05-24T10:15:24;21.20;99.90
73277;DHT22;61501;43.316;5.372;2023-05-24T10:17:51;21.30;99.90
73277;DHT22;61501;43.316;5.372;2023-05-24T10:20:17;21.20;99.90
73277;DHT22;61501;43.316;5.372;2023-05-24T10:22:45;21.40;99.90
73277;DHT22;61501;43.316;5.372;2023-05-24T10:25:21;21.10;99.90
73277;DHT22;61501;43.316;5.372;2023-05-24T10:27:49;21.20;99.90
73277;DHT22;61501;43.316;5.372;2023-05-24T10:30:35;21.20;99.90
73277;DHT22;61501;43.316;5.372;2023-05-24T10:33:03;21.20;99.90
73277;DHT22;61501;43.316;5.372;2023-05-24T10:35:31;21.20;99.90
73277;DHT22;61501;43.316;5.372;2023-05-24T10:37:58;21.00;99.90
73277;DHT22;61501;43.316;5.372;2023-05-24T10:40:24;21.10;99.90
73277;DHT22;61501;43.316;5.372;2023-05-24T10:42:51;21.20;99.90
73277;DHT22;61501;43.316;5.372;2023-05-24T10:47:53;21.10;99.90
73277;DHT22;61501;43.316;5.372;2023-05-24T10:50:22;21.10;99.90
73277;DHT22;61501;43.316;5.372;2023-05-24T10:52:49;21.00;99.90
73277;DHT22;61501;43.316;5.372;2023-05-24T10:55:18;21.00;99.90
73277;DHT22;61501;43.316;5.372;2023-05-24T10:57:44;21.00;99.90
73277;DHT22;61501;43.316;5.372;2023-05-24T11:02:50;21.10;99.90
73277;DHT22;61501;43.316;5.372;2023-05-24T11:05:16;21.30;99.90
73277;DHT22;61501;43.316;5.372;2023-05-24T11:07:43;21.00;99.90
73277;DHT22;61501;43.316;5.372;2023-05-24T11:10:31;21.00;99.90
73277;DHT22;61501;43.316;5.372;2023-05-24T11:13:00;20.90;99.90
73277;DHT22;61501;43.316;5.372;2023-05-24T11:15:28;20.90;99.90
73277;DHT22;61501;43.316;5.372;2023-05-24T11:20:42;21.00;99.90
73277;DHT22;61501;43.316;5.372;2023-05-24T11:23:08;21.30;99.90
73277;DHT22;61501;43.316;5.372;2023-05-24T11:25:34;21.40;99.90
73277;DHT22;61501;43.316;5.372;2023-05-24T11:28:07;21.20;99.90
73277;DHT22;61501;43.316;5.372;2023-05-24T11:30:37;21.20;99.90
73277;DHT22;61501;43.316;5.372;2023-05-24T11:33:03;21.20;99.90
73277;DHT22;61501;43.316;5.372;2023-05-24T11:35:29;21.30;99.90
73277;DHT22;61501;43.316;5.372;2023-05-24T11:37:56;21.30;99.90
73277;DHT22;61501;43.316;5.372;2023-05-24T11:40:22;21.20;99.90
73277;DHT22;61501;43.316;5.372;2023-05-24T11:42:49;21.10;99.90
73277;DHT22;61501;43.316;5.372;2023-05-24T11:45:16;21.00;99.90
73277;DHT22;61501;43.316;5.372;2023-05-24T11:47:43;20.80;99.90
73277;DHT22;61501;43.316;5.372;2023-05-24T11:50:09;20.90;99.90
73277;DHT22;61501;43.316;5.372;2023-05-24T11:52:39;20.90;99.90
73277;DHT22;61501;43.316;5.372;2023-05-24T11:55:06;21.10;99.90
73277;DHT22;61501;43.316;5.372;2023-05-24T11:57:41;21.10;99.90
73277;DHT22;61501;43.316;5.372;2023-05-24T12:00:11;21.10;99.90
73277;DHT22;61501;43.316;5.372;2023-05-24T12:02:41;21.20;99.90
73277;DHT22;61501;43.316;5.372;2023-05-24T12:05:08;21.10;99.90
73277;DHT22;61501;43.316;5.372;2023-05-24T12:07:36;21.10;99.90
73277;DHT22;61501;43.316;5.372;2023-05-24T12:10:05;21.10;99.90
73277;DHT22;61501;43.316;5.372;2023-05-24T12:12:32;21.20;99.90
73277;DHT22;61501;43.316;5.372;2023-05-24T12:14:58;21.10;99.90
73277;DHT22;61501;43.316;5.372;2023-05-24T12:17:24;21.10;99.90
73277;DHT22;61501;43.316;5.372;2023-05-24T12:19:49;21.00;99.90
73277;DHT22;61501;43.316;5.372;2023-05-24T12:22:18;21.00;99.90
73277;DHT22;61501;43.316;5.372;2023-05-24T12:24:43;21.10;99.90
73277;DHT22;61501;43.316;5.372;2023-05-24T12:27:13;21.10;99.90
73277;DHT22;61501;43.316;5.372;2023-05-24T12:33:18;21.00;99.90
73277;DHT22;61501;43.316;5.372;2023-05-24T12:35:43;21.10;99.90
73277;DHT22;61501;43.316;5.372;2023-05-24T12:38:10;21.30;99.90
73277;DHT22;61501;43.316;5.372;2023-05-24T12:40:36;21.50;99.90
73277;DHT22;61501;43.316;5.372;2023-05-24T12:43:03;21.50;99.90
73277;DHT22;61501;43.316;5.372;2023-05-24T12:45:29;21.40;99.90
73277;DHT22;61501;43.316;5.372;2023-05-24T12:47:57;21.30;99.90
73277;DHT22;61501;43.316;5.372;2023-05-24T12:50:24;21.30;99.90
73277;DHT22;61501;43.316;5.372;2023-05-24T12:52:51;21.10;99.90
73277;DHT22;61501;43.316;5.372;2023-05-24T12:55:18;21.30;99.90
73277;DHT22;61501;43.316;5.372;2023-05-24T12:57:45;21.30;99.90
73277;DHT22;61501;43.316;5.372;2023-05-24T13:00:21;21.20;99.90
73277;DHT22;61501;43.316;5.372;2023-05-24T13:02:48;21.30;99.90
73277;DHT22;61501;43.316;5.372;2023-05-24T13:05:14;21.60;99.90
73277;DHT22;61501;43.316;5.372;2023-05-24T13:07:43;21.90;99.90
73277;DHT22;61501;43.316;5.372;2023-05-24T13:10:09;22.10;99.90
73277;DHT22;61501;43.316;5.372;2023-05-24T13:12:35;22.50;99.90
73277;DHT22;61501;43.316;5.372;2023-05-24T13:15:01;22.50;99.90
73277;DHT22;61501;43.316;5.372;2023-05-24T13:17:27;23.50;99.90
73277;DHT22;61501;43.316;5.372;2023-05-24T13:19:53;24.40;99.90
73277;DHT22;61501;43.316;5.372;2023-05-24T13:22:20;24.80;99.90
73277;DHT22;61501;43.316;5.372;2023-05-24T13:24:45;25.40;99.90
73277;DHT22;61501;43.316;5.372;2023-05-24T13:27:11;25.70;99.90
73277;DHT22;61501;43.316;5.372;2023-05-24T13:29:37;25.80;99.90
73277;DHT22;61501;43.316;5.372;2023-05-24T13:32:03;25.20;99.90
73277;DHT22;61501;43.316;5.372;2023-05-24T13:34:29;24.60;99.90
73277;DHT22;61501;43.316;5.372;2023-05-24T13:36:55;24.00;99.90
73277;DHT22;61501;43.316;5.372;2023-05-24T13:39:22;24.30;99.90
73277;DHT22;61501;43.316;5.372;2023-05-24T13:41:48;24.40;99.90
73277;DHT22;61501;43.316;5.372;2023-05-24T13:44:14;24.40;99.90
73277;DHT22;61501;43.316;5.372;2023-05-24T13:46:41;24.30;99.90
73277;DHT22;61501;43.316;5.372;2023-05-24T13:49:08;24.00;99.90
73277;DHT22;61501;43.316;5.372;2023-05-24T13:51:35;24.50;99.90
73277;DHT22;61501;43.316;5.372;2023-05-24T13:54:01;24.20;99.90
73277;DHT22;61501;43.316;5.372;2023-05-24T13:56:27;24.70;99.90
73277;DHT22;61501;43.316;5.372;2023-05-24T13:58:59;25.10;99.90
73277;DHT22;61501;43.316;5.372;2023-05-24T14:01:26;24.60;99.90
73277;DHT22;61501;43.316;5.372;2023-05-24T14:03:51;24.30;99.90
73277;DHT22;61501;43.316;5.372;2023-05-24T14:06:17;24.00;99.90
73277;DHT22;61501;43.316;5.372;2023-05-24T14:08:44;24.30;99.90
73277;DHT22;61501;43.316;5.372;2023-05-24T14:11:11;24.70;99.90
73277;DHT22;61501;43.316;5.372;2023-05-24T14:13:42;25.70;99.90
73277;DHT22;61501;43.316;5.372;2023-05-24T14:16:08;25.20;99.90
73277;DHT22;61501;43.316;5.372;2023-05-24T14:18:34;24.60;99.90
73277;DHT22;61501;43.316;5.372;2023-05-24T14:21:01;23.70;99.90
73277;DHT22;61501;43.316;5.372;2023-05-24T14:23:27;23.50;99.90
73277;DHT22;61501;43.316;5.372;2023-05-24T14:25:56;23.40;99.90
73277;DHT22;61501;43.316;5.372;2023-05-24T14:28:21;23.90;99.90
73277;DHT22;61501;43.316;5.372;2023-05-24T14:30:47;23.90;99.90
73277;DHT22;61501;43.316;5.372;2023-05-24T14:33:13;24.20;99.90
73277;DHT22;61501;43.316;5.372;2023-05-24T14:35:39;24.70;99.90
73277;DHT22;61501;43.316;5.372;2023-05-24T14:38:05;24.80;99.90
73277;DHT22;61501;43.316;5.372;2023-05-24T14:40:32;24.20;99.90
73277;DHT22;61501;43.316;5.372;2023-05-24T14:42:59;24.30;99.90
73277;DHT22;61501;43.316;5.372;2023-05-24T14:45:25;24.30;99.90
73277;DHT22;61501;43.316;5.372;2023-05-24T14:47:50;24.10;99.90
73277;DHT22;61501;43.316;5.372;2023-05-24T14:50:16;23.80;99.90
73277;DHT22;61501;43.316;5.372;2023-05-24T14:52:42;23.50;99.90
73277;DHT22;61501;43.316;5.372;2023-05-24T14:55:08;23.00;99.90
73277;DHT22;61501;43.316;5.372;2023-05-24T14:57:34;23.00;99.90
73277;DHT22;61501;43.316;5.372;2023-05-24T15:00:00;22.80;99.90
73277;DHT22;61501;43.316;5.372;2023-05-24T15:02:27;22.70;99.90
73277;DHT22;61501;43.316;5.372;2023-05-24T15:04:53;22.50;99.90
73277;DHT22;61501;43.316;5.372;2023-05-24T15:07:18;22.40;99.90
73277;DHT22;61501;43.316;5.372;2023-05-24T15:09:44;22.10;99.90
73277;DHT22;61501;43.316;5.372;2023-05-24T15:12:10;22.10;99.90
73277;DHT22;61501;43.316;5.372;2023-05-24T15:14:35;22.10;99.90
73277;DHT22;61501;43.316;5.372;2023-05-24T15:17:01;22.20;99.90
73277;DHT22;61501;43.316;5.372;2023-05-24T15:19:27;22.10;99.90
73277;DHT22;61501;43.316;5.372;2023-05-24T15:21:53;22.10;99.90
73277;DHT22;61501;43.316;5.372;2023-05-24T15:24:18;22.10;99.90
73277;DHT22;61501;43.316;5.372;2023-05-24T15:26:44;22.20;99.90
73277;DHT22;61501;43.316;5.372;2023-05-24T15:29:10;22.20;99.90
73277;DHT22;61501;43.316;5.372;2023-05-24T15:31:35;22.40;99.90
73277;DHT22;61501;43.316;5.372;2023-05-24T15:34:01;22.20;99.90
73277;DHT22;61501;43.316;5.372;2023-05-24T15:36:29;22.20;99.90
73277;DHT22;61501;43.316;5.372;2023-05-24T15:38:55;22.10;99.90
73277;DHT22;61501;43.316;5.372;2023-05-24T15:41:21;22.10;99.90
73277;DHT22;61501;43.316;5.372;2023-05-24T15:43:50;22.00;99.90
73277;DHT22;61501;43.316;5.372;2023-05-24T15:46:16;22.00;99.90
73277;DHT22;61501;43.316;5.372;2023-05-24T15:48:44;22.00;99.90
73277;DHT22;61501;43.316;5.372;2023-05-24T15:51:09;21.90;99.90